createdAt,value
2018-11-13T00:00:54.915Z,101483.14
2018-11-13T00:03:23.074Z,101476.53
2018-11-13T00:05:51.244Z,101487.97
2018-11-13T00:08:19.711Z,101486.28
2018-11-13T00:10:47.895Z,101491.58
2018-11-13T00:13:16.055Z,101489.77
2018-11-13T00:15:44.405Z,101484.84
2018-11-13T00:18:14.395Z,101488.33
2018-11-13T00:20:44.043Z,101484.36
2018-11-13T00:23:12.563Z,101473.40
2018-11-13T00:25:41.923Z,101468.94
2018-11-13T00:28:10.190Z,101472.07
2018-11-13T00:30:38.355Z,101474.00
2018-11-13T00:33:06.547Z,101474.23
2018-11-13T00:35:34.740Z,101479.64
2018-11-13T00:38:02.895Z,101475.94
2018-11-13T00:40:31.077Z,101465.82
2018-11-13T00:42:59.287Z,101453.42
2018-11-13T00:45:27.480Z,101446.32
2018-11-13T00:47:55.603Z,101440.39
2018-11-13T00:50:23.764Z,101428.84
2018-11-13T00:52:51.936Z,101434.50
2018-11-13T00:55:20.184Z,101434.50
2018-11-13T00:57:48.972Z,101443.04
2018-11-13T01:00:18.481Z,101438.11
2018-11-13T01:02:46.637Z,101438.95
2018-11-13T01:05:16.048Z,101430.05
2018-11-13T01:07:45.363Z,101425.59
2018-11-13T01:10:14.362Z,101426.91
2018-11-13T01:12:43.469Z,101430.89
2018-11-13T01:15:13.172Z,101441.00
2018-11-13T01:17:41.964Z,101440.88
2018-11-13T01:20:10.123Z,101446.66
2018-11-13T01:22:38.295Z,101446.55
2018-11-13T01:25:07.483Z,101446.55
2018-11-13T01:27:35.651Z,101452.20
2018-11-13T01:30:04.423Z,101470.75
2018-11-13T01:32:32.588Z,101482.78
2018-11-13T01:35:00.764Z,101493.38
2018-11-13T01:37:28.936Z,101502.05
2018-11-13T01:39:57.127Z,101502.78
2018-11-13T01:42:25.303Z,101508.20
2018-11-13T01:44:53.552Z,101511.21
2018-11-13T01:47:21.764Z,101500.98
2018-11-13T01:49:49.941Z,101504.95
2018-11-13T01:52:18.104Z,101510.61
2018-11-13T01:54:46.311Z,101517.59
2018-11-13T01:57:14.733Z,101513.14
2018-11-13T01:59:42.679Z,101500.02
2018-11-13T02:02:10.908Z,101499.17
2018-11-13T02:04:39.077Z,101505.68
2018-11-13T02:07:07.235Z,101498.21
2018-11-13T02:09:35.623Z,101507.59
2018-11-13T02:12:03.814Z,101513.12
2018-11-13T02:14:32.007Z,101517.22
2018-11-13T02:17:00.162Z,101519.50
2018-11-13T02:19:28.347Z,101526.01
2018-11-13T02:21:56.550Z,101527.33
2018-11-13T02:24:24.739Z,101523.36
2018-11-13T02:26:52.891Z,101522.03
2018-11-13T02:29:21.060Z,101507.83
2018-11-13T02:31:49.211Z,101497.97
2018-11-13T02:34:17.404Z,101493.03
2018-11-13T02:36:45.595Z,101484.13
2018-11-13T02:39:13.816Z,101474.97
2018-11-13T02:41:42.237Z,101481.23
2018-11-13T02:44:10.408Z,101477.37
2018-11-13T02:46:38.970Z,101473.03
2018-11-13T02:49:07.202Z,101480.25
2018-11-13T02:51:35.655Z,101489.16
2018-11-13T02:54:03.958Z,101488.43
2018-11-13T02:56:33.311Z,101494.57
2018-11-13T02:59:01.488Z,101497.34
2018-11-13T03:01:29.644Z,101491.46
2018-11-13T03:03:57.832Z,101492.05
2018-11-13T03:06:25.983Z,101504.45
2018-11-13T03:08:54.168Z,101505.05
2018-11-13T03:11:22.323Z,101514.68
2018-11-13T03:13:50.567Z,101513.95
2018-11-13T03:16:18.671Z,101525.86
2018-11-13T03:18:46.886Z,101535.50
2018-11-13T03:21:15.037Z,101537.30
2018-11-13T03:23:43.205Z,101530.69
2018-11-13T03:26:11.363Z,101546.94
2018-11-13T03:28:39.530Z,101546.45
2018-11-13T03:31:07.911Z,101559.70
2018-11-13T03:33:35.884Z,101556.94
2018-11-13T03:36:04.051Z,101566.09
2018-11-13T03:38:32.235Z,101551.89
2018-11-13T03:41:00.404Z,101556.71
2018-11-13T03:43:28.554Z,101549.24
2018-11-13T03:45:56.711Z,101545.27
2018-11-13T03:48:24.881Z,101545.63
2018-11-13T03:50:53.099Z,101544.67
2018-11-13T03:53:21.253Z,101538.90
2018-11-13T03:55:49.453Z,101545.26
2018-11-13T03:58:17.603Z,101543.45
2018-11-13T04:00:45.820Z,101549.34
2018-11-13T04:03:14.034Z,101558.98
2018-11-13T04:05:42.190Z,101558.02
2018-11-13T04:08:10.355Z,101565.86
2018-11-13T04:10:38.504Z,101570.20
2018-11-13T04:13:06.687Z,101562.61
2018-11-13T04:15:34.890Z,101575.02
2018-11-13T04:18:03.123Z,101559.96
2018-11-13T04:20:31.270Z,101543.11
2018-11-13T04:22:59.487Z,101536.38
2018-11-13T04:25:27.623Z,101534.45
2018-11-13T04:27:55.777Z,101542.28
2018-11-13T04:30:23.980Z,101538.91
2018-11-13T04:32:52.159Z,101545.05
2018-11-13T04:35:20.342Z,101547.22
2018-11-13T04:37:48.550Z,101550.34
2018-11-13T04:40:17.918Z,101557.45
2018-11-13T04:42:47.340Z,101567.80
2018-11-13T04:45:16.622Z,101582.95
2018-11-13T04:47:45.839Z,101594.03
2018-11-13T04:50:15.131Z,101595.61
2018-11-13T04:52:43.618Z,101594.65
2018-11-13T04:55:12.201Z,101596.23
2018-11-13T04:57:41.505Z,101589.13
2018-11-13T05:00:13.344Z,101583.34
2018-11-13T05:02:42.282Z,101573.11
2018-11-13T05:05:11.759Z,101572.63
2018-11-13T05:07:40.169Z,101566.61
2018-11-13T05:10:10.990Z,101577.20
2018-11-13T05:12:39.487Z,101603.33
2018-11-13T05:15:08.203Z,101610.43
2018-11-13T05:17:36.362Z,101602.00
2018-11-13T05:20:04.594Z,101601.05
2018-11-13T05:22:32.770Z,101592.62
2018-11-13T05:25:00.930Z,101588.05
2018-11-13T05:27:29.201Z,101612.85
2018-11-13T05:29:57.576Z,101621.64
2018-11-13T05:32:25.759Z,101620.91
2018-11-13T05:34:53.982Z,101608.52
2018-11-13T05:37:22.191Z,101612.00
2018-11-13T05:39:50.342Z,101601.41
2018-11-13T05:42:18.547Z,101609.84
2018-11-13T05:44:46.770Z,101625.48
2018-11-13T05:47:15.042Z,101632.10
2018-11-13T05:49:43.150Z,101646.30
2018-11-13T05:52:11.666Z,101648.11
2018-11-13T05:54:39.931Z,101648.95
2018-11-13T05:57:08.084Z,101647.15
2018-11-13T05:59:36.351Z,101648.95
2018-11-13T06:02:04.703Z,101647.63
2018-11-13T06:04:32.859Z,101650.39
2018-11-13T06:07:01.031Z,101655.21
2018-11-13T06:09:29.186Z,101647.85
2018-11-13T06:11:57.347Z,101652.30
2018-11-13T06:14:25.542Z,101645.80
2018-11-13T06:16:53.719Z,101648.45
2018-11-13T06:19:21.882Z,101651.46
2018-11-13T06:21:50.072Z,101651.09
2018-11-13T06:24:18.281Z,101659.16
2018-11-13T06:26:46.464Z,101659.27
2018-11-13T06:29:14.671Z,101660.00
2018-11-13T06:31:42.826Z,101659.16
2018-11-13T06:34:11.000Z,101661.44
2018-11-13T06:36:39.225Z,101673.23
2018-11-13T06:39:09.412Z,101676.73
2018-11-13T06:41:37.655Z,101684.79
2018-11-13T06:44:05.807Z,101686.00
2018-11-13T06:46:34.104Z,101693.58
2018-11-13T06:49:02.379Z,101704.91
2018-11-13T06:51:30.539Z,101703.59
2018-11-13T06:54:10.089Z,101705.87
2018-11-13T06:56:38.226Z,101714.98
2018-11-13T06:59:06.508Z,101711.28
2018-11-13T07:01:34.952Z,101716.09
2018-11-13T07:04:03.142Z,101723.09
2018-11-13T07:06:31.341Z,101722.34
2018-11-13T07:08:59.480Z,101723.89
2018-11-13T07:11:27.646Z,101722.78
2018-11-13T07:13:55.797Z,101735.66
2018-11-13T07:16:23.955Z,101745.88
2018-11-13T07:18:52.094Z,101755.73
2018-11-13T07:21:20.318Z,101757.17
2018-11-13T07:23:48.508Z,101760.91
2018-11-13T07:26:16.676Z,101777.17
2018-11-13T07:28:44.833Z,101784.27
2018-11-13T07:31:13.056Z,101783.89
2018-11-13T07:33:41.240Z,101790.15
2018-11-13T07:36:09.422Z,101792.69
2018-11-13T07:38:37.635Z,101796.08
2018-11-13T07:41:05.867Z,101803.17
2018-11-13T07:43:33.981Z,101800.39
2018-11-13T07:46:02.119Z,101798.48
2018-11-13T07:48:30.266Z,101805.84
2018-11-13T07:50:58.499Z,101809.07
2018-11-13T07:53:26.655Z,101801.49
2018-11-13T07:55:54.812Z,101800.17
2018-11-13T07:58:23.025Z,101802.60
2018-11-13T08:00:51.315Z,101802.86
2018-11-13T08:03:29.863Z,101807.58
2018-11-13T08:05:58.023Z,101816.16
2018-11-13T08:08:26.203Z,101819.87
2018-11-13T08:10:54.356Z,101817.49
2018-11-13T08:13:22.563Z,101815.32
2018-11-13T08:15:50.664Z,101816.27
2018-11-13T08:18:18.918Z,101821.20
2018-11-13T08:20:47.067Z,101834.34
2018-11-13T08:23:15.243Z,101836.77
2018-11-13T08:25:43.397Z,101828.94
2018-11-13T08:28:11.575Z,101834.81
2018-11-13T08:30:39.714Z,101838.20
2018-11-13T08:33:07.912Z,101834.81
2018-11-13T08:35:36.090Z,101825.44
2018-11-13T08:38:05.386Z,101829.52
2018-11-13T08:40:33.521Z,101836.52
2018-11-13T08:43:01.678Z,101839.64
2018-11-13T08:45:29.852Z,101843.87
2018-11-13T08:47:57.994Z,101845.56
2018-11-13T08:50:26.250Z,101851.23
2018-11-13T08:52:54.297Z,101849.55
2018-11-13T08:55:22.529Z,101852.19
2018-11-13T08:57:50.678Z,101848.00
2018-11-13T09:00:19.886Z,101851.76
2018-11-13T09:02:48.663Z,101851.44
2018-11-13T09:05:17.179Z,101847.13
2018-11-13T09:07:45.336Z,101860.32
2018-11-13T09:10:14.712Z,101860.70
2018-11-13T09:12:43.298Z,101853.64
2018-11-13T09:15:12.919Z,101857.03
2018-11-13T09:17:41.382Z,101855.62
2018-11-13T09:20:11.506Z,101865.06
2018-11-13T09:22:39.800Z,101860.16
2018-11-13T09:25:09.863Z,101867.75
2018-11-13T09:27:38.247Z,101863.29
2018-11-13T09:30:08.323Z,101873.16
2018-11-13T09:32:36.332Z,101868.38
2018-11-13T09:35:04.742Z,101874.78
2018-11-13T09:37:32.909Z,101869.33
2018-11-13T09:40:01.044Z,101875.70
2018-11-13T09:42:29.203Z,101881.74
2018-11-13T09:44:57.440Z,101889.22
2018-11-13T09:47:25.496Z,101886.20
2018-11-13T09:50:00.431Z,101904.17
2018-11-13T09:52:28.628Z,101898.53
2018-11-13T09:54:57.143Z,101902.80
2018-11-13T09:57:25.293Z,101895.95
2018-11-13T09:59:53.493Z,101892.45
2018-11-13T10:02:22.320Z,101899.50
2018-11-13T10:04:50.503Z,101901.44
2018-11-13T10:07:17.999Z,101910.01
2018-11-13T10:09:46.150Z,101897.63
2018-11-13T10:12:14.290Z,101894.27
2018-11-13T10:14:42.488Z,101912.84
2018-11-13T10:17:10.670Z,101909.70
2018-11-13T10:19:38.798Z,101911.89
2018-11-13T10:22:06.962Z,101913.22
2018-11-13T10:24:35.108Z,101922.49
2018-11-13T10:27:03.313Z,101921.63
2018-11-13T10:29:31.439Z,101932.09
2018-11-13T10:31:59.600Z,101925.92
2018-11-13T10:34:27.738Z,101927.22
2018-11-13T10:36:55.874Z,101923.47
2018-11-13T10:39:24.119Z,101925.05
2018-11-13T10:41:52.280Z,101955.59
2018-11-13T10:44:20.429Z,101934.00
2018-11-13T10:46:48.600Z,101936.77
2018-11-13T10:49:16.847Z,101925.07
2018-11-13T10:51:44.893Z,101923.15
2018-11-13T10:54:13.048Z,101915.67
2018-11-13T10:56:41.203Z,101920.04
2018-11-13T10:59:09.344Z,101924.61
2018-11-13T11:01:42.738Z,101933.90
2018-11-13T11:04:16.138Z,101918.45
2018-11-13T11:06:53.695Z,101934.98
2018-11-13T11:09:21.872Z,101913.86
2018-11-13T11:11:50.012Z,101925.94
2018-11-13T11:14:18.191Z,101919.72
2018-11-13T11:16:46.382Z,101924.19
2018-11-13T11:19:14.571Z,101927.59
2018-11-13T11:21:42.723Z,101937.14
2018-11-13T11:24:10.939Z,101930.14
2018-11-13T11:26:39.028Z,101934.95
2018-11-13T11:29:07.176Z,101930.39
2018-11-13T11:31:35.327Z,101937.38
2018-11-13T11:34:03.476Z,101934.84
2018-11-13T11:36:31.679Z,101924.44
2018-11-13T11:39:00.005Z,101916.59
2018-11-13T11:41:27.998Z,101911.53
2018-11-13T11:43:56.170Z,101951.85
2018-11-13T11:46:24.367Z,101960.92
2018-11-13T11:48:52.526Z,101941.36
2018-11-13T11:51:20.723Z,101930.88
2018-11-13T11:53:48.928Z,101962.13
2018-11-13T11:56:17.034Z,101961.39
2018-11-13T11:58:45.191Z,101949.17
2018-11-13T12:01:13.351Z,101950.73
2018-11-13T12:03:41.618Z,101941.76
2018-11-13T12:06:09.764Z,101945.57
2018-11-13T12:08:37.932Z,101947.64
2018-11-13T12:11:06.123Z,101947.02
2018-11-13T12:13:34.286Z,101960.05
2018-11-13T12:16:02.471Z,101956.92
2018-11-13T12:18:30.639Z,101961.50
2018-11-13T12:20:58.782Z,101969.20
2018-11-13T12:23:26.976Z,101959.21
2018-11-13T12:25:55.147Z,101964.63
2018-11-13T12:28:23.270Z,101971.74
2018-11-13T12:30:51.427Z,101979.34
2018-11-13T12:33:19.567Z,101991.06
2018-11-13T12:35:47.715Z,101985.23
2018-11-13T12:38:15.915Z,101981.11
2018-11-13T12:40:44.189Z,101983.03
2018-11-13T12:43:12.280Z,101983.88
2018-11-13T12:45:40.541Z,101994.97
2018-11-13T12:48:08.711Z,102009.81
2018-11-13T12:50:42.211Z,101994.85
2018-11-13T12:53:10.390Z,101994.00
2018-11-13T12:55:38.620Z,102007.16
2018-11-13T12:58:06.675Z,102015.16
2018-11-13T13:00:34.847Z,101999.50
2018-11-13T13:03:03.046Z,102003.91
2018-11-13T13:05:31.215Z,102008.80
2018-11-13T13:07:59.386Z,102015.81
2018-11-13T13:10:27.663Z,102007.84
2018-11-13T13:12:55.820Z,102017.78
2018-11-13T13:15:23.972Z,102022.28
2018-11-13T13:17:52.568Z,102027.70
2018-11-13T13:20:22.236Z,102022.38
2018-11-13T13:22:50.714Z,102022.95
2018-11-13T13:25:19.799Z,102044.53
2018-11-13T13:27:47.958Z,102069.84
2018-11-13T13:30:18.615Z,102030.09
2018-11-13T13:32:47.391Z,102036.95
2018-11-13T13:36:05.759Z,102045.66
2018-11-13T13:38:35.336Z,102031.52
2018-11-13T13:41:04.148Z,102047.59
2018-11-13T13:43:32.927Z,102041.14
2018-11-13T13:46:01.123Z,102059.59
2018-11-13T13:48:29.573Z,102048.05
2018-11-13T13:50:57.791Z,102049.01
2018-11-13T13:53:26.675Z,102053.69
2018-11-13T13:55:54.851Z,102059.59
2018-11-13T13:58:23.811Z,102061.88
2018-11-13T14:00:52.524Z,102066.59
2018-11-13T14:03:20.611Z,102060.18
2018-11-13T14:05:48.886Z,102069.39
2018-11-13T14:08:17.751Z,102068.44
2018-11-13T14:10:45.938Z,102068.61
2018-11-13T14:13:14.494Z,102073.44
2018-11-13T14:15:42.728Z,102077.80
2018-11-13T14:18:11.148Z,102083.89
2018-11-13T14:20:39.319Z,102087.95
2018-11-13T14:23:07.469Z,102084.73
2018-11-13T14:25:35.612Z,102094.20
2018-11-13T14:28:03.775Z,102094.19
2018-11-13T14:30:33.139Z,102096.70
2018-11-13T14:33:02.743Z,102101.73
2018-11-13T14:35:30.987Z,102109.81
2018-11-13T14:37:59.296Z,102106.67
2018-11-13T14:40:29.727Z,102118.88
2018-11-13T14:42:58.146Z,102120.84
2018-11-13T14:45:26.906Z,102132.30
2018-11-13T14:47:55.104Z,102128.91
2018-11-13T14:50:26.412Z,102134.33
2018-11-13T14:52:54.895Z,102145.63
2018-11-13T14:55:28.092Z,102144.30
2018-11-13T14:57:56.934Z,102153.97
2018-11-13T15:00:27.120Z,102165.53
2018-11-13T15:02:55.883Z,102156.36
2018-11-13T15:05:24.959Z,102164.20
2018-11-13T15:07:55.542Z,102168.19
2018-11-13T15:10:31.903Z,102162.72
2018-11-13T15:13:00.162Z,102181.30
2018-11-13T15:15:28.340Z,102174.80
2018-11-13T15:17:56.651Z,102173.42
2018-11-13T15:20:24.784Z,102190.88
2018-11-13T15:22:52.927Z,102181.80
2018-11-13T15:25:21.123Z,102195.89
2018-11-13T15:27:49.413Z,102213.17
2018-11-13T15:30:26.015Z,102208.66
2018-11-13T15:32:56.672Z,102206.61
2018-11-13T15:35:24.984Z,102218.17
2018-11-13T15:37:53.166Z,102212.91
2018-11-13T15:40:25.722Z,102221.64
2018-11-13T15:42:53.928Z,102217.53
2018-11-13T15:45:22.173Z,102215.08
2018-11-13T15:47:51.183Z,102219.64
2018-11-13T15:50:20.671Z,102214.16
2018-11-13T15:52:48.842Z,102218.24
2018-11-13T15:55:17.431Z,102221.97
2018-11-13T15:57:46.348Z,102225.78
2018-11-13T16:00:18.424Z,102232.61
2018-11-13T16:02:46.734Z,102232.80
2018-11-13T16:05:24.047Z,102231.34
2018-11-13T16:07:53.671Z,102247.58
2018-11-13T16:10:21.875Z,102248.19
2018-11-13T16:12:50.315Z,102261.26
2018-11-13T16:15:20.015Z,102263.06
2018-11-13T16:17:48.607Z,102262.78
2018-11-13T16:20:16.882Z,102266.75
2018-11-13T16:22:45.067Z,102265.80
2018-11-13T16:25:13.248Z,102275.36
2018-11-13T16:27:41.611Z,102282.45
2018-11-13T16:30:12.208Z,102278.58
2018-11-13T16:32:40.735Z,102287.01
2018-11-13T16:35:10.639Z,102289.75
2018-11-13T16:37:39.835Z,102289.66
2018-11-13T16:40:09.580Z,102293.16
2018-11-13T16:42:38.347Z,102299.30
2018-11-13T16:45:07.884Z,102299.41
2018-11-13T16:47:36.230Z,102307.36
2018-11-13T16:50:06.886Z,102306.70
2018-11-13T16:52:35.342Z,102305.00
2018-11-13T16:55:04.027Z,102310.30
2018-11-13T16:57:32.297Z,102311.63
2018-11-13T17:00:00.765Z,102308.59
2018-11-13T17:02:29.056Z,102310.30
2018-11-13T17:04:57.323Z,102308.59
2018-11-13T17:07:25.613Z,102320.11
2018-11-13T17:09:53.791Z,102312.57
2018-11-13T17:12:22.047Z,102315.50
2018-11-13T17:14:50.393Z,102322.50
2018-11-13T17:17:18.604Z,102319.75
2018-11-13T17:19:47.450Z,102327.61
2018-11-13T17:22:17.076Z,102326.66
2018-11-13T17:24:45.397Z,102325.43
2018-11-13T17:27:16.797Z,102327.23
2018-11-13T17:29:44.985Z,102327.70
2018-11-13T17:32:13.175Z,102331.02
2018-11-13T17:34:41.332Z,102326.95
2018-11-13T17:37:09.499Z,102333.77
2018-11-13T17:39:37.646Z,102332.73
2018-11-13T17:42:06.356Z,102328.09
2018-11-13T17:44:34.516Z,102332.86
2018-11-13T17:47:02.707Z,102336.94
2018-11-13T17:49:32.591Z,102338.45
2018-11-13T17:52:00.771Z,102342.70
2018-11-13T17:54:28.921Z,102343.65
2018-11-13T17:56:57.540Z,102345.92
2018-11-13T17:59:25.823Z,102352.92
2018-11-13T18:01:53.994Z,102350.36
2018-11-13T18:04:22.146Z,102351.44
2018-11-13T18:06:50.334Z,102352.95
2018-11-13T18:09:18.470Z,102354.84
2018-11-13T18:11:46.775Z,102351.99
2018-11-13T18:14:15.059Z,102353.50
2018-11-13T18:16:43.080Z,102359.27
2018-11-13T18:19:11.243Z,102349.53
2018-11-13T18:21:39.434Z,102357.77
2018-11-13T18:24:07.603Z,102358.61
2018-11-13T18:26:35.746Z,102361.73
2018-11-13T18:29:04.531Z,102359.17
2018-11-13T18:31:32.671Z,102362.77
2018-11-13T18:34:00.893Z,102359.39
2018-11-13T18:36:29.077Z,102365.55
2018-11-13T18:38:57.351Z,102367.34
2018-11-13T18:41:25.379Z,102362.52
2018-11-13T18:43:53.664Z,102366.77
2018-11-13T18:46:21.859Z,102370.62
2018-11-13T18:48:50.081Z,102375.09
2018-11-13T18:51:18.190Z,102379.80
2018-11-13T18:53:46.348Z,102378.19
2018-11-13T18:56:14.543Z,102376.95
2018-11-13T18:58:43.306Z,102379.60
2018-11-13T19:01:11.494Z,102383.95
2018-11-13T19:03:39.655Z,102390.01
2018-11-13T19:06:07.855Z,102388.59
2018-11-13T19:08:36.040Z,102398.71
2018-11-13T19:11:04.624Z,102399.77
2018-11-13T19:13:32.779Z,102401.73
2018-11-13T19:16:03.067Z,102396.24
2018-11-13T19:18:31.315Z,102399.54
2018-11-13T19:20:59.392Z,102399.28
2018-11-13T19:23:27.597Z,102401.55
2018-11-13T19:25:55.771Z,102400.60
2018-11-13T19:28:23.964Z,102402.69
2018-11-13T19:30:52.150Z,102409.09
2018-11-13T19:33:20.289Z,102407.97
2018-11-13T19:35:49.378Z,102404.38
2018-11-13T19:38:17.381Z,102409.50
2018-11-13T19:40:45.563Z,102412.61
2018-11-13T19:43:14.717Z,102412.70
2018-11-13T19:45:42.630Z,102415.53
2018-11-13T19:48:10.807Z,102417.23
2018-11-13T19:50:39.119Z,102422.53
2018-11-13T19:53:07.343Z,102427.73
2018-11-13T19:55:35.839Z,102428.59
2018-11-13T19:58:04.239Z,102433.80
2018-11-13T20:00:33.724Z,102435.20
2018-11-13T20:03:03.035Z,102436.14
2018-11-13T20:05:31.751Z,102433.11
2018-11-13T20:07:59.988Z,102438.20
2018-11-13T20:10:29.589Z,102435.39
2018-11-13T20:12:59.258Z,102450.30
2018-11-13T20:15:28.188Z,102440.45
2018-11-13T20:17:56.467Z,102442.15
2018-11-13T20:20:25.855Z,102442.33
2018-11-13T20:22:54.595Z,102445.17
2018-11-13T20:25:24.167Z,102453.29
2018-11-13T20:27:52.346Z,102455.47
2018-11-13T20:30:23.748Z,102451.67
2018-11-13T20:32:51.976Z,102454.41
2018-11-13T20:35:20.150Z,102458.92
2018-11-13T20:37:49.029Z,102451.16
2018-11-13T20:40:19.655Z,102461.95
2018-11-13T20:42:49.282Z,102460.24
2018-11-13T20:45:17.471Z,102462.12
2018-11-13T20:47:45.687Z,102464.17
2018-11-13T20:50:16.063Z,102467.37
2018-11-13T20:52:44.618Z,102467.56
2018-11-13T20:55:12.946Z,102464.41
2018-11-13T20:57:41.210Z,102475.41
2018-11-13T21:00:21.826Z,102464.78
2018-11-13T21:02:50.230Z,102466.05
2018-11-13T21:05:18.559Z,102467.57
2018-11-13T21:07:46.814Z,102464.33
2018-11-13T21:10:16.345Z,102465.81
2018-11-13T21:12:45.080Z,102466.83
2018-11-13T21:15:14.859Z,102461.16
2018-11-13T21:17:43.116Z,102466.64
2018-11-13T21:20:13.681Z,102473.98
2018-11-13T21:22:42.051Z,102473.98
2018-11-13T21:25:11.773Z,102469.55
2018-11-13T21:27:40.497Z,102473.13
2018-11-13T21:30:13.665Z,102475.22
2018-11-13T21:32:42.378Z,102476.16
2018-11-13T21:35:11.308Z,102478.03
2018-11-13T21:37:40.254Z,102479.08
2018-11-13T21:40:09.495Z,102491.21
2018-11-13T21:42:37.653Z,102485.13
2018-11-13T21:45:07.163Z,102490.19
2018-11-13T21:47:35.348Z,102488.55
2018-11-13T21:50:03.757Z,102480.79
2018-11-13T21:52:31.835Z,102480.09
2018-11-13T21:54:59.991Z,102481.88
2018-11-13T21:57:28.149Z,102488.60
2018-11-13T21:59:56.318Z,102485.95
2018-11-13T22:02:24.560Z,102491.78
2018-11-13T22:04:52.830Z,102490.63
2018-11-13T22:07:20.855Z,102485.11
2018-11-13T22:09:49.035Z,102493.66
2018-11-13T22:12:17.186Z,102494.31
2018-11-13T22:14:45.411Z,102496.72
2018-11-13T22:17:13.611Z,102494.70
2018-11-13T22:22:10.067Z,102494.00
2018-11-13T22:24:38.270Z,102499.47
2018-11-13T22:27:06.584Z,102503.04
2018-11-13T22:29:35.115Z,102506.23
2018-11-13T22:32:03.108Z,102503.27
2018-11-13T22:34:31.268Z,102505.98
2018-11-13T22:36:59.450Z,102509.25
2018-11-13T22:39:27.695Z,102513.28
2018-11-13T22:41:55.839Z,102512.04
2018-11-13T22:44:24.028Z,102509.58
2018-11-13T22:46:52.177Z,102519.28
2018-11-13T22:49:20.403Z,102517.50
2018-11-13T22:51:48.660Z,102521.38
2018-11-13T22:54:16.834Z,102508.19
2018-11-13T22:56:45.001Z,102513.08
2018-11-13T22:59:13.164Z,102531.09
2018-11-13T23:01:41.406Z,102526.27
2018-11-13T23:04:09.633Z,102520.99
2018-11-13T23:06:37.777Z,102513.62
2018-11-13T23:09:09.203Z,102512.06
2018-11-13T23:11:37.437Z,102517.34
2018-11-13T23:14:06.324Z,102517.73
2018-11-13T23:16:34.500Z,102512.52
2018-11-13T23:19:02.667Z,102511.28
2018-11-13T23:21:30.841Z,102519.27
2018-11-13T23:23:59.021Z,102518.42
2018-11-13T23:26:27.210Z,102520.67
2018-11-13T23:28:55.382Z,102524.70
2018-11-13T23:31:23.543Z,102528.19
2018-11-13T23:33:51.941Z,102540.53
2018-11-13T23:36:20.029Z,102539.67
2018-11-13T23:38:48.187Z,102545.34
2018-11-13T23:41:16.386Z,102547.38
2018-11-13T23:43:44.567Z,102549.55
2018-11-13T23:46:12.831Z,102546.59
2018-11-13T23:48:41.060Z,102547.52
2018-11-13T23:51:09.231Z,102536.68
2018-11-13T23:53:37.432Z,102532.88
2018-11-13T23:56:05.712Z,102538.69
2018-11-13T23:58:33.912Z,102536.13
